JEF22 LGZA-LIRQ
Flight info
| Callsign | JEF22 |
|---|---|
| Flight time | 1h 42m |
| Altitude | 40000 |
| Route | ENESI UM872 LATAN DCT TEA DCT ALAXI DCT SOVAN DCT AMTEL DCT IBRID |
| Aircraft | CL60/M-SBDE2E3FGHIJ1J3J4J5M1P2RWXYZ/LB1D1 |
Departure
| Time | 2026-04-20 13:27 |
|---|---|
| Airport | Zakynthos International Airport Dionysios Solomos (LGZA) |
Arrival
| Time | 2026-04-20 15:09 |
|---|---|
| Airport | Florence Airport, Peretola (LIRQ) |
| Time | Latitude | Longitude | Altitude | Speed | Heading |
|---|---|---|---|---|---|
| 2026-04-20 13:07 | 37.75116 | 20.88639 | 19 ft | 0 kts | 343° |
| 2026-04-20 13:25 | 37.75129 | 20.88621 | 19 ft | 7 kts | 277° |
| 2026-04-20 13:25 | 37.75142 | 20.88532 | 17 ft | 13 kts | 333° |
| 2026-04-20 13:25 | 37.75247 | 20.88490 | 17 ft | 17 kts | 343° |
| 2026-04-20 13:25 | 37.75375 | 20.88443 | 16 ft | 20 kts | 345° |
| 2026-04-20 13:26 | 37.75471 | 20.88357 | 16 ft | 16 kts | 290° |
| 2026-04-20 13:26 | 37.75554 | 20.88259 | 17 ft | 18 kts | 341° |
| 2026-04-20 13:26 | 37.75662 | 20.88236 | 17 ft | 7 kts | 344° |
| 2026-04-20 13:26 | 37.75665 | 20.88217 | 17 ft | 3 kts | 202° |
| 2026-04-20 13:27 | 37.75500 | 20.88275 | 17 ft | 72 kts | 163° |
| 2026-04-20 13:27 | 37.74700 | 20.88574 | 126 ft | 155 kts | 161° |
| 2026-04-20 13:27 | 37.73641 | 20.88969 | 1092 ft | 166 kts | 165° |
| 2026-04-20 13:27 | 37.72472 | 20.89388 | 1875 ft | 196 kts | 166° |
| 2026-04-20 13:28 | 37.71091 | 20.89886 | 2867 ft | 219 kts | 165° |
| 2026-04-20 13:28 | 37.69634 | 20.90414 | 4161 ft | 227 kts | 165° |
| 2026-04-20 13:28 | 37.68125 | 20.90962 | 5455 ft | 234 kts | 165° |
| 2026-04-20 13:28 | 37.66579 | 20.91510 | 6755 ft | 239 kts | 169° |
| 2026-04-20 13:29 | 37.64891 | 20.91523 | 7639 ft | 260 kts | 198° |
| 2026-04-20 13:29 | 37.63320 | 20.90325 | 8559 ft | 274 kts | 232° |
| 2026-04-20 13:29 | 37.62470 | 20.88242 | 9732 ft | 276 kts | 262° |
| 2026-04-20 13:29 | 37.62566 | 20.85891 | 10850 ft | 281 kts | 289° |
| 2026-04-20 13:30 | 37.63604 | 20.83754 | 11664 ft | 299 kts | 316° |
| 2026-04-20 13:30 | 37.65307 | 20.82171 | 12675 ft | 312 kts | 326° |
| 2026-04-20 13:30 | 37.67122 | 20.80657 | 13832 ft | 317 kts | 322° |
| 2026-04-20 13:30 | 37.68821 | 20.78914 | 14973 ft | 321 kts | 319° |
| 2026-04-20 13:31 | 37.70504 | 20.77113 | 16042 ft | 326 kts | 319° |
| 2026-04-20 13:31 | 37.72255 | 20.75299 | 17096 ft | 330 kts | 321° |
| 2026-04-20 13:31 | 37.74123 | 20.73593 | 18130 ft | 335 kts | 325° |
| 2026-04-20 13:31 | 37.76070 | 20.71965 | 19113 ft | 338 kts | 325° |
| 2026-04-20 13:32 | 37.78013 | 20.70343 | 20045 ft | 342 kts | 325° |
| 2026-04-20 13:32 | 37.79996 | 20.68686 | 20937 ft | 345 kts | 324° |
| 2026-04-20 13:32 | 37.82005 | 20.67005 | 21861 ft | 348 kts | 324° |
| 2026-04-20 13:32 | 37.84012 | 20.65326 | 22727 ft | 351 kts | 324° |
| 2026-04-20 13:33 | 37.86064 | 20.63607 | 23544 ft | 355 kts | 324° |
| 2026-04-20 13:33 | 37.88117 | 20.61887 | 24325 ft | 358 kts | 324° |
| 2026-04-20 13:33 | 37.90191 | 20.60148 | 25056 ft | 363 kts | 324° |
| 2026-04-20 13:33 | 37.92318 | 20.58364 | 25811 ft | 366 kts | 324° |
| 2026-04-20 13:34 | 37.94427 | 20.56593 | 26516 ft | 369 kts | 324° |
| 2026-04-20 13:34 | 37.96584 | 20.54781 | 27162 ft | 372 kts | 324° |
| 2026-04-20 13:34 | 37.98731 | 20.52976 | 27784 ft | 375 kts | 324° |
| 2026-04-20 13:34 | 38.00925 | 20.51131 | 28366 ft | 378 kts | 324° |
| 2026-04-20 13:35 | 38.03111 | 20.49290 | 28902 ft | 381 kts | 324° |
| 2026-04-20 13:35 | 38.05334 | 20.47418 | 29441 ft | 384 kts | 324° |
| 2026-04-20 13:35 | 38.07603 | 20.45505 | 29966 ft | 386 kts | 324° |
| 2026-04-20 13:35 | 38.09858 | 20.43603 | 30442 ft | 389 kts | 324° |
| 2026-04-20 13:36 | 38.12135 | 20.41680 | 30876 ft | 392 kts | 324° |
| 2026-04-20 13:36 | 38.14408 | 20.39759 | 31271 ft | 395 kts | 324° |
| 2026-04-20 13:36 | 38.16723 | 20.37802 | 31728 ft | 396 kts | 324° |
| 2026-04-20 13:36 | 38.19007 | 20.35870 | 32255 ft | 394 kts | 324° |
| 2026-04-20 13:37 | 38.21299 | 20.33931 | 32832 ft | 392 kts | 323° |
| 2026-04-20 13:37 | 38.23541 | 20.32031 | 33371 ft | 389 kts | 323° |
| 2026-04-20 13:37 | 38.25807 | 20.30110 | 33890 ft | 387 kts | 323° |
| 2026-04-20 13:37 | 38.28012 | 20.28242 | 34368 ft | 385 kts | 323° |
| 2026-04-20 13:38 | 38.30259 | 20.26334 | 34811 ft | 383 kts | 323° |
| 2026-04-20 13:38 | 38.32330 | 20.24252 | 35146 ft | 380 kts | 315° |
| 2026-04-20 13:38 | 38.34227 | 20.21881 | 35409 ft | 381 kts | 314° |
| 2026-04-20 13:38 | 38.36099 | 20.19519 | 35671 ft | 382 kts | 314° |
| 2026-04-20 13:39 | 38.37993 | 20.17133 | 35894 ft | 383 kts | 314° |
| 2026-04-20 13:39 | 38.39888 | 20.14744 | 36107 ft | 384 kts | 314° |
| 2026-04-20 13:39 | 38.41787 | 20.12349 | 36350 ft | 384 kts | 314° |
| 2026-04-20 13:39 | 38.43678 | 20.09962 | 36656 ft | 384 kts | 314° |
| 2026-04-20 13:40 | 38.45552 | 20.07595 | 36952 ft | 384 kts | 314° |
| 2026-04-20 13:40 | 38.47449 | 20.05198 | 37219 ft | 384 kts | 314° |
| 2026-04-20 13:40 | 38.49348 | 20.02797 | 37493 ft | 385 kts | 314° |
| 2026-04-20 13:40 | 38.51243 | 20.00399 | 37750 ft | 385 kts | 314° |
| 2026-04-20 13:41 | 38.53136 | 19.98003 | 37998 ft | 385 kts | 314° |
| 2026-04-20 13:41 | 38.55040 | 19.95592 | 38270 ft | 384 kts | 314° |
| 2026-04-20 13:41 | 38.56926 | 19.93200 | 38505 ft | 384 kts | 314° |
| 2026-04-20 13:41 | 38.58824 | 19.90793 | 38720 ft | 385 kts | 314° |
| 2026-04-20 13:42 | 38.60720 | 19.88386 | 38869 ft | 387 kts | 314° |
| 2026-04-20 13:42 | 38.64533 | 19.83540 | 39252 ft | 387 kts | 314° |
| 2026-04-20 13:42 | 38.66454 | 19.81096 | 39443 ft | 387 kts | 314° |
| 2026-04-20 13:43 | 38.68332 | 19.78706 | 39651 ft | 386 kts | 314° |
| 2026-04-20 13:43 | 38.70248 | 19.76264 | 39852 ft | 386 kts | 314° |
| 2026-04-20 13:43 | 38.72137 | 19.73856 | 40027 ft | 386 kts | 314° |
| 2026-04-20 13:43 | 38.74051 | 19.71413 | 40019 ft | 390 kts | 314° |
| 2026-04-20 13:44 | 38.77922 | 19.66466 | 40030 ft | 398 kts | 314° |
| 2026-04-20 13:44 | 38.81847 | 19.61443 | 40021 ft | 405 kts | 314° |
| 2026-04-20 13:45 | 38.85854 | 19.56307 | 40021 ft | 410 kts | 314° |
| 2026-04-20 13:45 | 38.89872 | 19.51149 | 40021 ft | 412 kts | 314° |
| 2026-04-20 13:46 | 38.93919 | 19.45944 | 40021 ft | 412 kts | 314° |
| 2026-04-20 13:46 | 38.97964 | 19.40735 | 40017 ft | 411 kts | 314° |
| 2026-04-20 13:47 | 39.01990 | 19.35539 | 40021 ft | 411 kts | 314° |
| 2026-04-20 13:47 | 39.06002 | 19.30354 | 40022 ft | 411 kts | 313° |
| 2026-04-20 13:48 | 39.10043 | 19.25121 | 40004 ft | 412 kts | 313° |
| 2026-04-20 13:48 | 39.14066 | 19.19903 | 40018 ft | 410 kts | 313° |
| 2026-04-20 13:49 | 39.18079 | 19.14689 | 40011 ft | 410 kts | 313° |
| 2026-04-20 13:49 | 39.22070 | 19.09494 | 40009 ft | 410 kts | 313° |
| 2026-04-20 13:50 | 39.26059 | 19.04293 | 40013 ft | 409 kts | 313° |
| 2026-04-20 13:50 | 39.29799 | 18.98798 | 40006 ft | 409 kts | 303° |
| 2026-04-20 13:51 | 39.32600 | 18.92448 | 40007 ft | 409 kts | 299° |
| 2026-04-20 13:51 | 39.35363 | 18.86037 | 40008 ft | 408 kts | 299° |
| 2026-04-20 13:52 | 39.38113 | 18.79644 | 40008 ft | 408 kts | 299° |
| 2026-04-20 13:52 | 39.40854 | 18.73256 | 40002 ft | 408 kts | 299° |
| 2026-04-20 13:53 | 39.43602 | 18.66839 | 39999 ft | 408 kts | 299° |
| 2026-04-20 13:53 | 39.46342 | 18.60427 | 39999 ft | 408 kts | 299° |
| 2026-04-20 13:54 | 39.49078 | 18.54011 | 40004 ft | 408 kts | 299° |
| 2026-04-20 13:54 | 39.51794 | 18.47627 | 39999 ft | 408 kts | 299° |
| 2026-04-20 13:55 | 39.54523 | 18.41201 | 40001 ft | 408 kts | 299° |
| 2026-04-20 13:55 | 39.57228 | 18.34817 | 39997 ft | 407 kts | 298° |
| 2026-04-20 13:56 | 39.59956 | 18.28365 | 39997 ft | 408 kts | 298° |
| 2026-04-20 13:56 | 39.62663 | 18.21950 | 40003 ft | 407 kts | 298° |
| 2026-04-20 13:57 | 39.65379 | 18.15500 | 39999 ft | 407 kts | 298° |
| 2026-04-20 13:57 | 39.68087 | 18.09055 | 39999 ft | 407 kts | 298° |
| 2026-04-20 13:58 | 39.70767 | 18.02662 | 39991 ft | 407 kts | 298° |
| 2026-04-20 13:58 | 39.73474 | 17.96193 | 39990 ft | 406 kts | 298° |
| 2026-04-20 13:59 | 39.76143 | 17.89801 | 39990 ft | 407 kts | 298° |
| 2026-04-20 13:59 | 39.78837 | 17.83334 | 39982 ft | 407 kts | 298° |
| 2026-04-20 14:00 | 39.81518 | 17.76886 | 39990 ft | 407 kts | 298° |
| 2026-04-20 14:00 | 39.84209 | 17.70401 | 39982 ft | 407 kts | 298° |
| 2026-04-20 14:01 | 39.86886 | 17.63935 | 39982 ft | 407 kts | 298° |
| 2026-04-20 14:01 | 39.89543 | 17.57502 | 39982 ft | 406 kts | 298° |
| 2026-04-20 14:02 | 39.92211 | 17.51030 | 39977 ft | 406 kts | 298° |
| 2026-04-20 14:02 | 39.94873 | 17.44562 | 39977 ft | 406 kts | 298° |
| 2026-04-20 14:03 | 39.97531 | 17.38087 | 39974 ft | 405 kts | 298° |
| 2026-04-20 14:03 | 40.00190 | 17.31598 | 39980 ft | 406 kts | 298° |
| 2026-04-20 14:04 | 40.02844 | 17.25105 | 39985 ft | 406 kts | 298° |
| 2026-04-20 14:04 | 40.05489 | 17.18619 | 39967 ft | 406 kts | 298° |
| 2026-04-20 14:05 | 40.08125 | 17.12143 | 39972 ft | 406 kts | 298° |
| 2026-04-20 14:05 | 40.10784 | 17.05599 | 39976 ft | 410 kts | 298° |
| 2026-04-20 14:06 | 40.13478 | 16.98951 | 39964 ft | 416 kts | 298° |
| 2026-04-20 14:06 | 40.16179 | 16.92271 | 39982 ft | 420 kts | 298° |
| 2026-04-20 14:07 | 40.18890 | 16.85552 | 39985 ft | 419 kts | 298° |
| 2026-04-20 14:07 | 40.21618 | 16.78775 | 39986 ft | 417 kts | 298° |
| 2026-04-20 14:08 | 40.24320 | 16.72050 | 39987 ft | 416 kts | 298° |
| 2026-04-20 14:08 | 40.26990 | 16.65388 | 39990 ft | 416 kts | 298° |
| 2026-04-20 14:09 | 40.29674 | 16.58677 | 39981 ft | 416 kts | 298° |
| 2026-04-20 14:09 | 40.32358 | 16.51948 | 39997 ft | 416 kts | 298° |
| 2026-04-20 14:10 | 40.35021 | 16.45261 | 39996 ft | 416 kts | 298° |
| 2026-04-20 14:10 | 40.37689 | 16.38542 | 39991 ft | 416 kts | 298° |
| 2026-04-20 14:11 | 40.40357 | 16.31811 | 40007 ft | 416 kts | 297° |
| 2026-04-20 14:11 | 40.43021 | 16.25073 | 40019 ft | 416 kts | 297° |
| 2026-04-20 14:12 | 40.45678 | 16.18336 | 40017 ft | 415 kts | 297° |
| 2026-04-20 14:12 | 40.48319 | 16.11629 | 40028 ft | 415 kts | 297° |
| 2026-04-20 14:13 | 40.50949 | 16.04932 | 40029 ft | 414 kts | 297° |
| 2026-04-20 14:13 | 40.53578 | 15.98225 | 40028 ft | 414 kts | 297° |
| 2026-04-20 14:14 | 40.56215 | 15.91478 | 40017 ft | 414 kts | 297° |
| 2026-04-20 14:14 | 40.58834 | 15.84767 | 40028 ft | 414 kts | 297° |
| 2026-04-20 14:15 | 40.61450 | 15.78044 | 40028 ft | 415 kts | 297° |
| 2026-04-20 14:15 | 40.64083 | 15.71265 | 40017 ft | 415 kts | 297° |
| 2026-04-20 14:16 | 40.66691 | 15.64533 | 40011 ft | 415 kts | 297° |
| 2026-04-20 14:16 | 40.69301 | 15.57781 | 40003 ft | 415 kts | 297° |
| 2026-04-20 14:17 | 40.71924 | 15.50980 | 39992 ft | 415 kts | 297° |
| 2026-04-20 14:17 | 40.74517 | 15.44239 | 40002 ft | 415 kts | 297° |
| 2026-04-20 14:18 | 40.77124 | 15.37450 | 39991 ft | 415 kts | 297° |
| 2026-04-20 14:18 | 40.79723 | 15.30662 | 39999 ft | 415 kts | 296° |
| 2026-04-20 14:19 | 40.82320 | 15.23868 | 40002 ft | 416 kts | 296° |
| 2026-04-20 14:19 | 40.84912 | 15.17068 | 40010 ft | 416 kts | 297° |
| 2026-04-20 14:20 | 40.87516 | 15.10220 | 40012 ft | 416 kts | 297° |
| 2026-04-20 14:20 | 40.90094 | 15.03425 | 40011 ft | 416 kts | 297° |
| 2026-04-20 14:21 | 40.92693 | 14.96561 | 40012 ft | 416 kts | 297° |
| 2026-04-20 14:21 | 40.95265 | 14.89750 | 40007 ft | 416 kts | 296° |
| 2026-04-20 14:22 | 40.97842 | 14.82912 | 40003 ft | 415 kts | 296° |
| 2026-04-20 14:22 | 41.00406 | 14.76091 | 40002 ft | 414 kts | 297° |
| 2026-04-20 14:23 | 41.02959 | 14.69288 | 39999 ft | 414 kts | 296° |
| 2026-04-20 14:23 | 41.05509 | 14.62471 | 40000 ft | 414 kts | 296° |
| 2026-04-20 14:24 | 41.08062 | 14.55631 | 39997 ft | 414 kts | 296° |
| 2026-04-20 14:24 | 41.10605 | 14.48800 | 40001 ft | 413 kts | 296° |
| 2026-04-20 14:25 | 41.13140 | 14.41976 | 40004 ft | 413 kts | 296° |
| 2026-04-20 14:25 | 41.15662 | 14.35172 | 40007 ft | 413 kts | 296° |
| 2026-04-20 14:26 | 41.18196 | 14.28318 | 40010 ft | 413 kts | 296° |
| 2026-04-20 14:26 | 41.20728 | 14.21456 | 40011 ft | 413 kts | 296° |
| 2026-04-20 14:27 | 41.23233 | 14.14648 | 40013 ft | 413 kts | 296° |
| 2026-04-20 14:27 | 41.25745 | 14.07807 | 40009 ft | 412 kts | 296° |
| 2026-04-20 14:28 | 41.28251 | 14.00965 | 40001 ft | 412 kts | 296° |
| 2026-04-20 14:28 | 41.31404 | 13.94645 | 40008 ft | 413 kts | 310° |
| 2026-04-20 14:29 | 41.35330 | 13.89096 | 40002 ft | 413 kts | 311° |
| 2026-04-20 14:29 | 41.39265 | 13.83536 | 39994 ft | 413 kts | 311° |
| 2026-04-20 14:30 | 41.43184 | 13.77991 | 39986 ft | 413 kts | 311° |
| 2026-04-20 14:30 | 41.47115 | 13.72417 | 39983 ft | 409 kts | 311° |
| 2026-04-20 14:31 | 41.50977 | 13.66933 | 39983 ft | 403 kts | 311° |
| 2026-04-20 14:31 | 41.54777 | 13.61524 | 40004 ft | 401 kts | 311° |
| 2026-04-20 14:32 | 41.58576 | 13.56106 | 40026 ft | 401 kts | 311° |
| 2026-04-20 14:32 | 41.62397 | 13.50647 | 40034 ft | 401 kts | 311° |
| 2026-04-20 14:33 | 41.66190 | 13.45218 | 40044 ft | 402 kts | 311° |
| 2026-04-20 14:33 | 41.70000 | 13.39755 | 40059 ft | 401 kts | 311° |
| 2026-04-20 14:34 | 41.73831 | 13.34302 | 40054 ft | 402 kts | 313° |
| 2026-04-20 14:34 | 41.77857 | 13.29087 | 40037 ft | 403 kts | 313° |
| 2026-04-20 14:35 | 41.81861 | 13.23910 | 40026 ft | 403 kts | 313° |
| 2026-04-20 14:35 | 41.85876 | 13.18708 | 40024 ft | 403 kts | 313° |
| 2026-04-20 14:36 | 41.89908 | 13.13474 | 40021 ft | 403 kts | 313° |
| 2026-04-20 14:36 | 41.93924 | 13.08250 | 40002 ft | 402 kts | 313° |
| 2026-04-20 14:37 | 41.97924 | 13.03038 | 39995 ft | 401 kts | 313° |
| 2026-04-20 14:37 | 42.01913 | 12.97829 | 39983 ft | 400 kts | 313° |
| 2026-04-20 14:38 | 42.05899 | 12.92615 | 39997 ft | 400 kts | 313° |
| 2026-04-20 14:38 | 42.09912 | 12.87355 | 39995 ft | 401 kts | 313° |
| 2026-04-20 14:39 | 42.13909 | 12.82107 | 39983 ft | 401 kts | 313° |
| 2026-04-20 14:39 | 42.17886 | 12.76875 | 39983 ft | 402 kts | 313° |
| 2026-04-20 14:40 | 42.21893 | 12.71592 | 39982 ft | 402 kts | 313° |
| 2026-04-20 14:40 | 42.25878 | 12.66331 | 39985 ft | 402 kts | 313° |
| 2026-04-20 14:41 | 42.29870 | 12.61049 | 39981 ft | 401 kts | 313° |
| 2026-04-20 14:41 | 42.33870 | 12.55748 | 39979 ft | 402 kts | 313° |
| 2026-04-20 14:42 | 42.37835 | 12.50482 | 39979 ft | 403 kts | 313° |
| 2026-04-20 14:42 | 42.41843 | 12.45151 | 39972 ft | 402 kts | 313° |
| 2026-04-20 14:43 | 42.45822 | 12.39846 | 39961 ft | 402 kts | 313° |
| 2026-04-20 14:43 | 42.49823 | 12.34504 | 39954 ft | 402 kts | 313° |
| 2026-04-20 14:44 | 42.53811 | 12.29167 | 39873 ft | 406 kts | 312° |
| 2026-04-20 14:44 | 42.55830 | 12.26460 | 39333 ft | 412 kts | 313° |
| 2026-04-20 14:44 | 42.57842 | 12.23762 | 38764 ft | 408 kts | 313° |
| 2026-04-20 14:45 | 42.59841 | 12.21080 | 38225 ft | 404 kts | 313° |
| 2026-04-20 14:45 | 42.61839 | 12.18395 | 37646 ft | 403 kts | 313° |
| 2026-04-20 14:45 | 42.63832 | 12.15716 | 37085 ft | 403 kts | 313° |
| 2026-04-20 14:45 | 42.65813 | 12.13048 | 36532 ft | 404 kts | 313° |
| 2026-04-20 14:46 | 42.67805 | 12.10363 | 35929 ft | 406 kts | 313° |
| 2026-04-20 14:46 | 42.69803 | 12.07669 | 35330 ft | 405 kts | 313° |
| 2026-04-20 14:46 | 42.71795 | 12.04979 | 34728 ft | 406 kts | 313° |
| 2026-04-20 14:46 | 42.73803 | 12.02265 | 34129 ft | 405 kts | 313° |
| 2026-04-20 14:47 | 42.75791 | 11.99575 | 33543 ft | 409 kts | 313° |
| 2026-04-20 14:47 | 42.77812 | 11.96839 | 32952 ft | 407 kts | 313° |
| 2026-04-20 14:47 | 42.79808 | 11.94134 | 32358 ft | 406 kts | 313° |
| 2026-04-20 14:48 | 42.83959 | 11.89013 | 31166 ft | 402 kts | 322° |
| 2026-04-20 14:48 | 42.86342 | 11.87055 | 30408 ft | 402 kts | 328° |
| 2026-04-20 14:48 | 42.88791 | 11.85268 | 29223 ft | 409 kts | 329° |
| 2026-04-20 14:48 | 42.91322 | 11.83419 | 28056 ft | 413 kts | 329° |
| 2026-04-20 14:49 | 42.93814 | 11.81597 | 27139 ft | 411 kts | 329° |
| 2026-04-20 14:49 | 42.96320 | 11.79764 | 26293 ft | 407 kts | 329° |
| 2026-04-20 14:49 | 42.98790 | 11.77956 | 25492 ft | 402 kts | 329° |
| 2026-04-20 14:49 | 43.01223 | 11.76174 | 24822 ft | 394 kts | 329° |
| 2026-04-20 14:50 | 43.03616 | 11.74420 | 24225 ft | 386 kts | 329° |
| 2026-04-20 14:50 | 43.05947 | 11.72709 | 23552 ft | 380 kts | 329° |
| 2026-04-20 14:50 | 43.08260 | 11.71010 | 22844 ft | 375 kts | 329° |
| 2026-04-20 14:50 | 43.10534 | 11.69337 | 22110 ft | 371 kts | 329° |
| 2026-04-20 14:51 | 43.12793 | 11.67673 | 21356 ft | 368 kts | 329° |
| 2026-04-20 14:51 | 43.15036 | 11.66020 | 20620 ft | 364 kts | 329° |
| 2026-04-20 14:51 | 43.17255 | 11.64384 | 20034 ft | 357 kts | 329° |
| 2026-04-20 14:51 | 43.19413 | 11.62792 | 19516 ft | 351 kts | 329° |
| 2026-04-20 14:52 | 43.21539 | 11.61219 | 19001 ft | 354 kts | 329° |
| 2026-04-20 14:52 | 43.23714 | 11.59611 | 18484 ft | 353 kts | 329° |
| 2026-04-20 14:52 | 43.25859 | 11.57988 | 17941 ft | 349 kts | 325° |
| 2026-04-20 14:52 | 43.27635 | 11.55823 | 17227 ft | 342 kts | 310° |
| 2026-04-20 14:53 | 43.29201 | 11.53376 | 16426 ft | 343 kts | 310° |
| 2026-04-20 14:53 | 43.30767 | 11.50948 | 15701 ft | 340 kts | 310° |
| 2026-04-20 14:53 | 43.32319 | 11.48544 | 15010 ft | 338 kts | 310° |
| 2026-04-20 14:53 | 43.33872 | 11.46136 | 14120 ft | 341 kts | 310° |
| 2026-04-20 14:54 | 43.35440 | 11.43703 | 13252 ft | 342 kts | 310° |
| 2026-04-20 14:54 | 43.36997 | 11.41289 | 12483 ft | 339 kts | 310° |
| 2026-04-20 14:54 | 43.38549 | 11.38882 | 11742 ft | 336 kts | 310° |
| 2026-04-20 14:54 | 43.40089 | 11.36492 | 11085 ft | 330 kts | 310° |
| 2026-04-20 14:55 | 43.41588 | 11.34165 | 10603 ft | 325 kts | 309° |
| 2026-04-20 14:55 | 43.43065 | 11.31870 | 10123 ft | 318 kts | 309° |
| 2026-04-20 14:55 | 43.44505 | 11.29634 | 9665 ft | 309 kts | 309° |
| 2026-04-20 14:55 | 43.45913 | 11.27444 | 9216 ft | 301 kts | 309° |
| 2026-04-20 14:56 | 43.47288 | 11.25303 | 8782 ft | 294 kts | 309° |
| 2026-04-20 14:56 | 43.48617 | 11.23235 | 8356 ft | 288 kts | 309° |
| 2026-04-20 14:56 | 43.49939 | 11.21176 | 7939 ft | 282 kts | 309° |
| 2026-04-20 14:56 | 43.51202 | 11.19206 | 7549 ft | 276 kts | 309° |
| 2026-04-20 14:57 | 43.52460 | 11.17243 | 7137 ft | 271 kts | 309° |
| 2026-04-20 14:57 | 43.53701 | 11.15305 | 6740 ft | 266 kts | 308° |
| 2026-04-20 14:57 | 43.54917 | 11.13405 | 6353 ft | 260 kts | 308° |
| 2026-04-20 14:57 | 43.56101 | 11.11556 | 5988 ft | 256 kts | 308° |
| 2026-04-20 14:58 | 43.57270 | 11.09725 | 5605 ft | 257 kts | 308° |
| 2026-04-20 14:58 | 43.58447 | 11.07886 | 5239 ft | 253 kts | 309° |
| 2026-04-20 14:58 | 43.59684 | 11.06191 | 4863 ft | 251 kts | 315° |
| 2026-04-20 14:58 | 43.60966 | 11.04617 | 4505 ft | 247 kts | 315° |
| 2026-04-20 14:59 | 43.62244 | 11.03044 | 4178 ft | 242 kts | 315° |
| 2026-04-20 14:59 | 43.63490 | 11.01529 | 3931 ft | 236 kts | 319° |
| 2026-04-20 14:59 | 43.64870 | 11.00400 | 3728 ft | 229 kts | 334° |
| 2026-04-20 14:59 | 43.66397 | 10.99983 | 3636 ft | 220 kts | 359° |
| 2026-04-20 15:00 | 43.67852 | 11.00444 | 3562 ft | 211 kts | 26° |
| 2026-04-20 15:00 | 43.69008 | 11.01645 | 3430 ft | 212 kts | 46° |
| 2026-04-20 15:00 | 43.69973 | 11.03210 | 3149 ft | 215 kts | 52° |
| 2026-04-20 15:00 | 43.70892 | 11.04837 | 2891 ft | 213 kts | 51° |
| 2026-04-20 15:01 | 43.71832 | 11.06394 | 2635 ft | 209 kts | 49° |
| 2026-04-20 15:01 | 43.72778 | 11.07865 | 2359 ft | 200 kts | 48° |
| 2026-04-20 15:01 | 43.73693 | 11.09253 | 2106 ft | 192 kts | 47° |
| 2026-04-20 15:01 | 43.74569 | 11.10586 | 1862 ft | 185 kts | 47° |
| 2026-04-20 15:02 | 43.75414 | 11.11882 | 1626 ft | 177 kts | 47° |
| 2026-04-20 15:02 | 43.76210 | 11.13108 | 1401 ft | 166 kts | 47° |
| 2026-04-20 15:02 | 43.76933 | 11.14227 | 1218 ft | 143 kts | 47° |
| 2026-04-20 15:02 | 43.77577 | 11.15226 | 1059 ft | 139 kts | 47° |
| 2026-04-20 15:03 | 43.78217 | 11.16213 | 835 ft | 134 kts | 47° |
| 2026-04-20 15:03 | 43.78845 | 11.17177 | 700 ft | 134 kts | 47° |
| 2026-04-20 15:03 | 43.79456 | 11.18131 | 550 ft | 133 kts | 46° |
| 2026-04-20 15:03 | 43.80075 | 11.19079 | 333 ft | 132 kts | 46° |
| 2026-04-20 15:04 | 43.80687 | 11.20017 | 157 ft | 131 kts | 46° |
| 2026-04-20 15:04 | 43.81251 | 11.20900 | 206 ft | 126 kts | 48° |
| 2026-04-20 15:04 | 43.81915 | 11.21993 | 748 ft | 167 kts | 49° |
| 2026-04-20 15:04 | 43.82476 | 11.23215 | 2043 ft | 160 kts | 75° |
| 2026-04-20 15:05 | 43.82359 | 11.24731 | 2991 ft | 173 kts | 114° |
| 2026-04-20 15:05 | 43.81611 | 11.26254 | 3477 ft | 217 kts | 141° |
| 2026-04-20 15:05 | 43.80251 | 11.26983 | 3691 ft | 214 kts | 184° |
| 2026-04-20 15:05 | 43.78765 | 11.26719 | 3939 ft | 217 kts | 192° |
| 2026-04-20 15:06 | 43.77317 | 11.26218 | 3994 ft | 214 kts | 210° |
| 2026-04-20 15:06 | 43.76238 | 11.24860 | 3990 ft | 210 kts | 233° |
| 2026-04-20 15:06 | 43.75375 | 11.23223 | 3951 ft | 211 kts | 236° |
| 2026-04-20 15:06 | 43.74529 | 11.21555 | 3618 ft | 211 kts | 236° |
| 2026-04-20 15:07 | 43.73772 | 11.19894 | 3258 ft | 201 kts | 246° |
| 2026-04-20 15:07 | 43.73642 | 11.18088 | 2839 ft | 185 kts | 283° |
| 2026-04-20 15:07 | 43.74360 | 11.16700 | 2393 ft | 178 kts | 319° |
| 2026-04-20 15:07 | 43.75363 | 11.15791 | 1974 ft | 171 kts | 325° |
| 2026-04-20 15:08 | 43.76432 | 11.15163 | 1556 ft | 165 kts | 353° |
| 2026-04-20 15:08 | 43.77523 | 11.15599 | 1063 ft | 169 kts | 32° |
| 2026-04-20 15:08 | 43.78418 | 11.16562 | 742 ft | 159 kts | 41° |
| 2026-04-20 15:08 | 43.79142 | 11.17646 | 528 ft | 145 kts | 47° |
| 2026-04-20 15:09 | 43.79776 | 11.18616 | 443 ft | 135 kts | 44° |
| 2026-04-20 15:09 | 43.80382 | 11.19548 | 240 ft | 127 kts | 45° |
| 2026-04-20 15:09 | 43.80937 | 11.20403 | 146 ft | 94 kts | 49° |
| 2026-04-20 15:09 | 43.81136 | 11.20691 | 149 ft | 11 kts | 31° |
| 2026-04-20 15:10 | 43.81119 | 11.20691 | 149 ft | 11 kts | 232° |
| 2026-04-20 15:10 | 43.81028 | 11.20540 | 147 ft | 25 kts | 230° |
| 2026-04-20 15:10 | 43.80901 | 11.20345 | 145 ft | 28 kts | 227° |
| 2026-04-20 15:10 | 43.80765 | 11.20134 | 143 ft | 28 kts | 226° |
| 2026-04-20 15:11 | 43.80634 | 11.19932 | 142 ft | 27 kts | 227° |
| 2026-04-20 15:11 | 43.80567 | 11.19778 | 141 ft | 15 kts | 292° |
| 2026-04-20 15:11 | 43.80640 | 11.19675 | 141 ft | 14 kts | 319° |
| 2026-04-20 15:11 | 43.80692 | 11.19611 | 141 ft | 7 kts | 319° |
| 2026-04-20 15:12 | 43.80696 | 11.19562 | 140 ft | 5 kts | 269° |
| 2026-04-20 15:12 | 43.80695 | 11.19514 | 140 ft | 3 kts | 267° |
| 2026-04-20 15:12 | 43.80695 | 11.19513 | 140 ft | 0 kts | 267° |